createdAt,value
2022-09-27T00:02:01.053Z,5.88
2022-09-27T00:04:46.724Z,6.28
2022-09-27T00:07:32.270Z,5.47
2022-09-27T00:10:17.816Z,5.00
2022-09-27T00:13:03.669Z,5.68
2022-09-27T00:15:56.349Z,4.82
2022-09-27T00:18:42.469Z,5.05
2022-09-27T00:21:30.553Z,5.30
2022-09-27T00:24:19.838Z,4.50
2022-09-27T00:27:05.173Z,6.03
2022-09-27T00:29:50.806Z,5.85
2022-09-27T00:32:36.544Z,5.93
2022-09-27T00:35:21.921Z,4.65
2022-09-27T00:38:07.113Z,5.13
2022-09-27T00:40:52.505Z,5.45
2022-09-27T00:43:57.536Z,5.38
2022-09-27T00:46:50.928Z,4.75
2022-09-27T00:49:52.056Z,4.13
2022-09-27T00:52:46.530Z,4.93
2022-09-27T00:55:40.183Z,4.40
2022-09-27T00:58:30.884Z,4.97
2022-09-27T01:01:17.377Z,5.60
2022-09-27T01:04:12.156Z,5.13
2022-09-27T01:06:59.471Z,5.32
2022-09-27T01:09:45.424Z,4.50
2022-09-27T01:12:59.943Z,5.78
2022-09-27T01:16:00.335Z,5.70
2022-09-27T01:19:03.459Z,5.93
2022-09-27T01:21:58.217Z,5.82
2022-09-27T01:25:02.855Z,4.95
2022-09-27T01:28:09.289Z,5.03
2022-09-27T01:31:08.314Z,4.85
2022-09-27T01:34:19.934Z,4.97
2022-09-27T01:37:32.789Z,4.40
2022-09-27T01:40:43.109Z,5.15
2022-09-27T01:44:06.743Z,5.60
2022-09-27T01:47:05.565Z,4.97
2022-09-27T01:50:08.926Z,5.18
2022-09-27T01:53:30.200Z,5.05
2022-09-27T01:56:57.696Z,3.80
2022-09-27T01:59:54.659Z,3.28
2022-09-27T02:03:08.256Z,3.13
2022-09-27T02:06:00.832Z,2.83
2022-09-27T02:09:30.917Z,2.72
2022-09-27T02:12:54.829Z,2.22
2022-09-27T02:16:03.717Z,2.17
2022-09-27T02:19:30.068Z,1.65
2022-09-27T02:22:29.189Z,2.05
2022-09-27T02:25:24.763Z,2.45
2022-09-27T02:28:33.599Z,1.52
2022-09-27T02:31:20.269Z,2.17
2022-09-27T02:34:15.298Z,1.85
2022-09-27T02:37:00.937Z,1.60
2022-09-27T02:39:46.744Z,1.85
2022-09-27T02:42:33.559Z,1.42
2022-09-27T02:45:19.991Z,1.88
2022-09-27T02:48:13.587Z,1.45
2022-09-27T02:51:11.637Z,1.33
2022-09-27T02:54:00.713Z,1.15
2022-09-27T02:57:08.136Z,1.50
2022-09-27T03:00:22.208Z,1.70
2022-09-27T03:03:22.492Z,1.75
2022-09-27T03:06:18.729Z,1.88
2022-09-27T03:09:04.375Z,1.70
2022-09-27T03:11:50.400Z,1.73
2022-09-27T03:14:36.661Z,1.33
2022-09-27T03:17:36.477Z,1.38
2022-09-27T03:20:57.662Z,1.50
2022-09-27T03:23:44.392Z,1.40
2022-09-27T03:26:29.830Z,1.70
2022-09-27T03:29:17.023Z,1.65
2022-09-27T03:32:07.036Z,1.48
2022-09-27T03:37:51.246Z,0.75
2022-09-27T03:40:36.711Z,1.40
2022-09-27T03:43:23.652Z,1.40
2022-09-27T03:46:09.202Z,0.90
2022-09-27T03:48:54.504Z,1.30
2022-09-27T03:51:39.991Z,1.50
2022-09-27T03:54:25.293Z,1.50
2022-09-27T03:57:11.303Z,1.27
2022-09-27T03:59:59.918Z,1.20
2022-09-27T04:02:57.534Z,1.30
2022-09-27T04:05:42.870Z,1.13
2022-09-27T04:08:33.264Z,0.98
2022-09-27T04:11:18.841Z,1.02
2022-09-27T04:14:05.760Z,1.13
2022-09-27T04:16:58.514Z,0.77
2022-09-27T04:20:04.113Z,1.30
2022-09-27T04:22:51.245Z,0.88
2022-09-27T04:25:37.101Z,0.80
2022-09-27T04:28:29.875Z,0.70
2022-09-27T04:31:15.766Z,0.82
2022-09-27T04:34:52.188Z,0.50
2022-09-27T04:37:43.919Z,1.00
2022-09-27T04:40:29.923Z,0.93
2022-09-27T04:43:15.246Z,1.30
2022-09-27T04:46:00.683Z,0.70
2022-09-27T04:48:46.036Z,1.20
2022-09-27T04:51:31.667Z,0.95
2022-09-27T04:54:17.395Z,1.10
2022-09-27T04:57:12.293Z,1.17
2022-09-27T05:00:01.679Z,1.35
2022-09-27T05:02:48.473Z,0.73
2022-09-27T05:05:52.824Z,0.75
2022-09-27T05:08:38.184Z,0.88
2022-09-27T05:11:53.196Z,0.82
2022-09-27T05:14:41.507Z,1.10
2022-09-27T05:17:53.983Z,0.88
2022-09-27T05:20:59.190Z,1.02
2022-09-27T05:23:51.433Z,0.40
2022-09-27T05:26:37.536Z,0.80
2022-09-27T05:29:23.288Z,0.52
2022-09-27T05:32:23.682Z,0.80
2022-09-27T05:35:20.722Z,0.60
2022-09-27T05:38:06.601Z,0.60
2022-09-27T05:40:54.409Z,0.77
2022-09-27T05:43:40.264Z,0.70
2022-09-27T05:46:26.361Z,1.17
2022-09-27T05:49:11.903Z,0.40
2022-09-27T05:51:58.226Z,0.40
2022-09-27T05:54:46.706Z,0.50
2022-09-27T05:57:34.926Z,0.77
2022-09-27T06:00:23.878Z,0.90
2022-09-27T06:03:12.880Z,0.60
2022-09-27T06:06:17.266Z,0.60
2022-09-27T06:09:12.840Z,0.60
2022-09-27T06:11:59.122Z,1.27
2022-09-27T06:14:44.811Z,0.65
2022-09-27T06:17:35.859Z,0.60
2022-09-27T06:20:27.386Z,0.70
2022-09-27T06:23:21.144Z,0.77
2022-09-27T06:26:08.154Z,0.75
2022-09-27T06:29:09.072Z,0.77
2022-09-27T06:31:59.203Z,0.60
2022-09-27T06:35:05.270Z,0.60
2022-09-27T06:37:52.359Z,0.60
2022-09-27T06:40:38.719Z,0.88
2022-09-27T06:43:34.896Z,0.73
2022-09-27T06:46:33.861Z,0.95
2022-09-27T06:49:38.283Z,1.00
2022-09-27T06:52:24.148Z,0.93
2022-09-27T06:55:10.817Z,0.85
2022-09-27T06:58:16.713Z,0.80
2022-09-27T07:01:20.590Z,0.68
2022-09-27T07:04:25.346Z,0.70
2022-09-27T07:07:35.307Z,0.70
2022-09-27T07:10:21.250Z,1.20
2022-09-27T07:13:08.156Z,0.90
2022-09-27T07:15:54.265Z,0.88
2022-09-27T07:18:41.074Z,0.82
2022-09-27T07:21:27.076Z,0.90
2022-09-27T07:24:13.321Z,1.05
2022-09-27T07:27:00.436Z,1.05
2022-09-27T07:29:46.925Z,0.82
2022-09-27T07:32:32.262Z,0.80
2022-09-27T07:35:17.908Z,0.70
2022-09-27T07:38:04.758Z,1.27
2022-09-27T07:40:50.392Z,0.60
2022-09-27T07:43:35.804Z,1.27
2022-09-27T07:46:21.393Z,0.95
2022-09-27T07:49:15.644Z,0.85
2022-09-27T07:52:16.740Z,0.85
2022-09-27T07:55:28.029Z,0.90
2022-09-27T07:58:22.317Z,0.98
2022-09-27T08:01:10.093Z,0.60
2022-09-27T08:03:58.546Z,0.85
2022-09-27T08:06:44.766Z,0.75
2022-09-27T08:09:30.315Z,1.10
2022-09-27T08:12:16.865Z,1.02
2022-09-27T08:15:05.055Z,0.80
2022-09-27T08:17:51.069Z,1.00
2022-09-27T08:20:45.654Z,0.70
2022-09-27T08:23:57.361Z,0.70
2022-09-27T08:26:51.050Z,0.90
2022-09-27T08:29:44.033Z,0.90
2022-09-27T08:32:30.782Z,0.70
2022-09-27T08:35:18.889Z,0.70
2022-09-27T08:38:06.107Z,0.70
2022-09-27T08:40:56.430Z,0.70
2022-09-27T08:43:57.413Z,0.70
2022-09-27T08:47:16.922Z,0.60
2022-09-27T08:50:28.253Z,0.65
2022-09-27T08:53:14.137Z,0.60
2022-09-27T08:56:03.875Z,1.10
2022-09-27T08:59:25.781Z,0.82
2022-09-27T09:02:20.789Z,0.60
2022-09-27T09:05:27.648Z,0.70
2022-09-27T09:08:24.868Z,0.60
2022-09-27T09:11:58.857Z,0.80
2022-09-27T09:14:54.881Z,0.60
2022-09-27T09:18:10.219Z,0.85
2022-09-27T09:21:38.509Z,0.50
2022-09-27T09:24:34.015Z,0.50
2022-09-27T09:27:32.610Z,0.50
2022-09-27T09:30:24.178Z,0.55
2022-09-27T09:33:23.118Z,0.80
2022-09-27T09:36:08.867Z,0.68
2022-09-27T09:39:14.374Z,0.50
2022-09-27T09:42:09.066Z,0.40
2022-09-27T09:45:16.193Z,0.47
2022-09-27T09:48:24.387Z,0.55
2022-09-27T09:51:18.924Z,1.48
2022-09-27T09:54:13.583Z,0.70
2022-09-27T09:57:10.915Z,0.55
2022-09-27T10:00:05.278Z,0.40
2022-09-27T10:03:01.338Z,0.70
2022-09-27T10:05:47.369Z,0.47
2022-09-27T10:08:34.174Z,0.50
2022-09-27T10:11:45.339Z,0.43
2022-09-27T10:14:44.474Z,0.70
2022-09-27T10:17:42.210Z,0.60
2022-09-27T10:20:40.103Z,0.50
2022-09-27T10:23:26.552Z,0.70
2022-09-27T10:26:39.587Z,0.75
2022-09-27T10:29:37.349Z,0.60
2022-09-27T10:32:33.642Z,0.50
2022-09-27T10:35:45.202Z,0.60
2022-09-27T10:38:55.635Z,0.60
2022-09-27T10:41:48.607Z,0.50
2022-09-27T10:44:43.861Z,0.40
2022-09-27T10:47:44.551Z,0.68
2022-09-27T10:51:03.896Z,0.57
2022-09-27T10:54:05.107Z,0.50
2022-09-27T10:57:19.861Z,0.60
2022-09-27T11:00:20.390Z,0.50
2022-09-27T11:03:15.939Z,0.50
2022-09-27T11:06:24.081Z,0.70
2022-09-27T11:09:32.306Z,0.47
2022-09-27T11:12:20.856Z,0.65
2022-09-27T11:15:19.196Z,0.50
2022-09-27T11:18:44.973Z,0.60
2022-09-27T11:22:01.333Z,0.50
2022-09-27T11:25:19.532Z,0.60
2022-09-27T11:28:15.965Z,0.57
2022-09-27T11:31:39.307Z,0.50
2022-09-27T11:34:27.895Z,1.02
2022-09-27T11:37:20.608Z,0.70
2022-09-27T11:40:15.251Z,0.65
2022-09-27T11:43:18.920Z,0.63
2022-09-27T11:46:26.621Z,0.50
2022-09-27T11:49:38.845Z,0.60
2022-09-27T11:52:47.887Z,0.70
2022-09-27T11:55:56.772Z,0.52
2022-09-27T11:59:09.283Z,0.43
2022-09-27T12:02:30.273Z,0.60
2022-09-27T12:05:32.715Z,0.98
2022-09-27T12:08:40.076Z,0.52
2022-09-27T12:11:31.178Z,0.40
2022-09-27T12:14:17.656Z,0.43
2022-09-27T12:17:11.476Z,0.50
2022-09-27T12:20:01.704Z,0.57
2022-09-27T12:23:04.928Z,0.50
2022-09-27T12:26:39.594Z,0.50
2022-09-27T12:29:31.661Z,0.57
2022-09-27T12:32:23.395Z,0.70
2022-09-27T12:35:29.122Z,0.50
2022-09-27T12:38:21.313Z,0.88
2022-09-27T12:41:11.333Z,0.50
2022-09-27T12:44:13.283Z,0.50
2022-09-27T12:47:24.771Z,0.40
2022-09-27T12:50:34.770Z,0.40
2022-09-27T12:53:26.655Z,0.52
2022-09-27T12:56:32.741Z,0.50
2022-09-27T12:59:34.312Z,0.60
2022-09-27T13:03:17.011Z,0.60
2022-09-27T13:06:28.845Z,0.60
2022-09-27T13:09:43.038Z,0.82
2022-09-27T13:12:31.429Z,0.50
2022-09-27T13:15:20.826Z,0.50
2022-09-27T13:18:29.844Z,0.52
2022-09-27T13:21:51.112Z,0.50
2022-09-27T13:24:49.830Z,0.50
2022-09-27T13:27:55.583Z,0.57
2022-09-27T13:30:48.000Z,0.85
2022-09-27T13:33:46.353Z,0.68
2022-09-27T13:36:36.696Z,0.50
2022-09-27T13:39:26.520Z,0.60
2022-09-27T13:43:02.814Z,0.60
2022-09-27T13:45:55.200Z,0.65
2022-09-27T13:49:04.670Z,0.80
2022-09-27T13:52:36.391Z,0.50
2022-09-27T13:55:43.551Z,0.80
2022-09-27T13:58:56.083Z,0.65
2022-09-27T14:02:27.840Z,0.45
2022-09-27T14:05:20.610Z,0.70
2022-09-27T14:08:14.444Z,0.70
2022-09-27T14:11:03.137Z,0.80
2022-09-27T14:13:52.172Z,0.70
2022-09-27T14:16:46.295Z,0.80
2022-09-27T14:19:31.884Z,0.70
2022-09-27T14:22:20.005Z,0.57
2022-09-27T14:25:17.979Z,0.70
2022-09-27T14:28:26.181Z,0.70
2022-09-27T14:31:26.280Z,0.50
2022-09-27T14:34:21.476Z,0.40
2022-09-27T14:37:26.117Z,0.63
2022-09-27T14:40:21.933Z,0.57
2022-09-27T14:43:15.801Z,0.60
2022-09-27T14:46:06.927Z,0.40
2022-09-27T14:48:53.305Z,0.70
2022-09-27T14:51:38.952Z,0.80
2022-09-27T14:54:29.266Z,0.70
2022-09-27T14:57:17.445Z,0.60
2022-09-27T15:00:20.853Z,0.60
2022-09-27T15:03:10.324Z,0.50
2022-09-27T15:05:56.816Z,0.93
2022-09-27T15:08:45.752Z,0.70
2022-09-27T15:11:33.383Z,0.38
2022-09-27T15:14:21.015Z,0.47
2022-09-27T15:20:18.821Z,0.52
2022-09-27T15:23:05.691Z,0.60
2022-09-27T15:26:10.134Z,0.52
2022-09-27T15:28:56.193Z,0.57
2022-09-27T15:31:42.429Z,0.45
2022-09-27T15:34:30.046Z,0.63
2022-09-27T15:37:39.019Z,0.55
2022-09-27T15:40:49.933Z,0.50
2022-09-27T15:43:48.667Z,0.90
2022-09-27T15:46:37.500Z,0.77
2022-09-27T15:49:30.568Z,0.90
2022-09-27T15:52:51.994Z,0.57
2022-09-27T15:55:43.850Z,0.57
2022-09-27T15:58:30.449Z,0.40
2022-09-27T16:01:19.128Z,0.60
2022-09-27T16:04:09.238Z,0.60
2022-09-27T16:06:55.087Z,0.65
2022-09-27T16:09:40.794Z,0.93
2022-09-27T16:12:30.115Z,0.70
2022-09-27T16:15:16.137Z,0.63
2022-09-27T16:18:01.592Z,0.75
2022-09-27T16:20:47.287Z,0.60
2022-09-27T16:23:32.652Z,0.70
2022-09-27T16:26:19.797Z,0.73
2022-09-27T16:29:10.432Z,1.00
2022-09-27T16:31:55.955Z,1.00
2022-09-27T16:34:41.299Z,0.70
2022-09-27T16:37:26.812Z,0.60
2022-09-27T16:40:13.728Z,1.02
2022-09-27T16:42:59.599Z,0.85
2022-09-27T16:45:44.641Z,0.82
2022-09-27T16:48:30.063Z,1.05
2022-09-27T16:51:39.043Z,0.85
2022-09-27T16:54:25.837Z,1.08
2022-09-27T16:57:11.014Z,0.75
2022-09-27T16:59:57.458Z,0.80
2022-09-27T17:02:47.101Z,1.10
2022-09-27T17:05:32.646Z,0.70
2022-09-27T17:08:18.017Z,1.17
2022-09-27T17:11:03.656Z,1.25
2022-09-27T17:13:53.291Z,0.73
2022-09-27T17:16:39.114Z,1.42
2022-09-27T17:19:24.257Z,1.30
2022-09-27T17:22:09.542Z,1.70
2022-09-27T17:24:54.970Z,1.00
2022-09-27T17:27:40.275Z,0.80
2022-09-27T17:30:26.252Z,0.70
2022-09-27T17:33:11.785Z,0.80
2022-09-27T17:36:02.972Z,1.02
2022-09-27T17:38:50.729Z,1.00
2022-09-27T17:41:40.128Z,0.77
2022-09-27T17:44:27.105Z,1.20
2022-09-27T17:47:31.777Z,0.88
2022-09-27T17:50:27.606Z,1.05
2022-09-27T17:53:13.040Z,1.27
2022-09-27T17:56:02.022Z,1.30
2022-09-27T17:58:52.673Z,1.00
2022-09-27T18:01:39.434Z,0.90
2022-09-27T18:04:25.080Z,1.07
2022-09-27T18:07:13.065Z,1.13
2022-09-27T18:09:59.159Z,1.27
2022-09-27T18:12:44.669Z,1.52
2022-09-27T18:15:30.224Z,1.30
2022-09-27T18:18:16.169Z,1.10
2022-09-27T18:21:03.582Z,1.02
2022-09-27T18:23:54.251Z,1.30
2022-09-27T18:26:40.653Z,1.35
2022-09-27T18:29:31.132Z,1.40
2022-09-27T18:32:16.419Z,1.00
2022-09-27T18:35:02.024Z,1.30
2022-09-27T18:37:48.037Z,0.95
2022-09-27T18:40:55.155Z,1.30
2022-09-27T18:43:41.763Z,1.17
2022-09-27T18:46:37.489Z,1.15
2022-09-27T18:49:26.350Z,1.50
2022-09-27T18:52:13.796Z,0.90
2022-09-27T18:54:59.423Z,1.13
2022-09-27T18:57:45.175Z,1.23
2022-09-27T19:00:31.328Z,1.05
2022-09-27T19:03:17.776Z,1.00
2022-09-27T19:06:10.274Z,1.10
2022-09-27T19:08:58.778Z,1.40
2022-09-27T19:11:44.436Z,0.90
2022-09-27T19:14:30.025Z,0.65
2022-09-27T19:17:15.380Z,1.45
2022-09-27T19:20:01.077Z,1.10
2022-09-27T19:22:46.409Z,0.60
2022-09-27T19:25:32.061Z,1.02
2022-09-27T19:28:20.271Z,0.90
2022-09-27T19:31:08.012Z,0.60
2022-09-27T19:33:58.928Z,1.02
2022-09-27T19:36:45.293Z,0.88
2022-09-27T19:39:30.842Z,0.90
2022-09-27T19:42:16.848Z,0.63
2022-09-27T19:45:02.550Z,0.82
2022-09-27T19:47:48.052Z,0.70
2022-09-27T19:50:33.270Z,1.13
2022-09-27T19:53:18.934Z,0.90
2022-09-27T19:56:06.605Z,0.60
2022-09-27T20:01:37.381Z,1.15
2022-09-27T20:04:27.391Z,0.57
2022-09-27T20:07:13.724Z,1.08
2022-09-27T20:09:59.431Z,1.13
2022-09-27T20:12:48.697Z,0.68
2022-09-27T20:15:33.986Z,1.35
2022-09-27T20:18:19.513Z,0.95
2022-09-27T20:21:05.637Z,0.80
2022-09-27T20:23:53.109Z,1.05
2022-09-27T20:26:38.660Z,0.60
2022-09-27T20:29:23.961Z,0.77
2022-09-27T20:32:26.600Z,0.90
2022-09-27T20:35:12.939Z,0.90
2022-09-27T20:37:58.189Z,0.90
2022-09-27T20:40:43.682Z,0.80
2022-09-27T20:43:28.863Z,0.70
2022-09-27T20:46:19.023Z,0.90
2022-09-27T20:49:09.607Z,0.80
2022-09-27T20:51:55.008Z,0.55
2022-09-27T20:54:40.471Z,0.90
2022-09-27T20:57:40.441Z,0.70
2022-09-27T21:00:32.480Z,0.70
2022-09-27T21:03:21.571Z,0.80
2022-09-27T21:06:08.060Z,0.57
2022-09-27T21:08:54.561Z,0.95
2022-09-27T21:11:40.451Z,0.80
2022-09-27T21:14:26.299Z,0.68
2022-09-27T21:17:12.004Z,0.73
2022-09-27T21:19:57.197Z,0.82
2022-09-27T21:22:42.529Z,1.30
2022-09-27T21:25:28.151Z,1.00
2022-09-27T21:28:13.673Z,0.98
2022-09-27T21:31:03.742Z,1.15
2022-09-27T21:33:53.643Z,1.45
2022-09-27T21:36:39.687Z,1.00
2022-09-27T21:39:25.319Z,1.10
2022-09-27T21:42:10.745Z,1.15
2022-09-27T21:44:56.479Z,1.20
2022-09-27T21:47:42.266Z,1.10
2022-09-27T21:50:28.228Z,1.25
2022-09-27T21:53:13.552Z,1.00
2022-09-27T21:55:59.599Z,1.52
2022-09-27T21:58:45.229Z,1.20
2022-09-27T22:01:33.119Z,1.20
2022-09-27T22:07:04.129Z,1.02
2022-09-27T22:09:49.773Z,1.30
2022-09-27T22:12:35.374Z,1.20
2022-09-27T22:15:20.907Z,1.10
2022-09-27T22:18:06.806Z,0.90
2022-09-27T22:20:52.171Z,1.00
2022-09-27T22:23:38.675Z,1.17
2022-09-27T22:26:26.853Z,0.90
2022-09-27T22:29:12.468Z,1.48
2022-09-27T22:31:57.986Z,1.00
2022-09-27T22:34:43.838Z,1.23
2022-09-27T22:37:28.995Z,1.33
2022-09-27T22:40:15.129Z,1.40
2022-09-27T22:43:00.646Z,1.20
2022-09-27T22:45:46.296Z,1.17
2022-09-27T22:48:32.818Z,1.83
2022-09-27T22:51:18.578Z,1.90
2022-09-27T22:54:04.340Z,1.80
2022-09-27T22:56:57.176Z,2.20
2022-09-27T22:59:42.656Z,2.05
2022-09-27T23:02:28.024Z,2.28
2022-09-27T23:05:13.681Z,2.08
2022-09-27T23:07:58.925Z,1.58
2022-09-27T23:10:44.270Z,2.67
2022-09-27T23:13:32.054Z,1.80
2022-09-27T23:16:20.300Z,2.20
2022-09-27T23:19:06.866Z,1.60
2022-09-27T23:21:52.519Z,2.33
2022-09-27T23:24:38.186Z,1.45
2022-09-27T23:27:41.978Z,1.63
2022-09-27T23:30:30.082Z,1.88
2022-09-27T23:33:15.861Z,1.90
2022-09-27T23:36:03.019Z,2.15
2022-09-27T23:38:48.746Z,2.33
2022-09-27T23:41:34.124Z,2.05
2022-09-27T23:44:19.600Z,1.67
2022-09-27T23:47:05.168Z,1.90
2022-09-27T23:49:50.550Z,1.88
2022-09-27T23:52:36.035Z,2.08
2022-09-27T23:55:21.245Z,1.85
2022-09-27T23:58:07.259Z,1.70
